createdAt,value
2022-09-04T00:02:50.660Z,16.88
2022-09-04T00:05:27.584Z,16.83
2022-09-04T00:08:12.221Z,16.89
2022-09-04T00:10:42.203Z,16.89
2022-09-04T00:13:21.896Z,17.00
2022-09-04T00:16:05.971Z,17.01
2022-09-04T00:18:57.799Z,17.02
2022-09-04T00:21:32.886Z,17.05
2022-09-04T00:24:11.216Z,17.00
2022-09-04T00:27:13.831Z,16.98
2022-09-04T00:30:06.062Z,16.96
2022-09-04T00:32:50.200Z,17.01
2022-09-04T00:35:26.963Z,16.96
2022-09-04T00:37:54.324Z,17.00
2022-09-04T00:40:31.442Z,16.98
2022-09-04T00:43:17.333Z,16.95
2022-09-04T00:46:05.619Z,16.87
2022-09-04T00:48:41.507Z,16.96
2022-09-04T00:51:17.813Z,16.91
2022-09-04T00:53:57.051Z,16.95
2022-09-04T00:57:04.431Z,16.94
2022-09-04T00:59:39.362Z,16.96
2022-09-04T01:02:26.483Z,16.93
2022-09-04T01:05:22.017Z,16.87
2022-09-04T01:08:16.804Z,16.85
2022-09-04T01:11:05.838Z,16.86
2022-09-04T01:13:51.186Z,16.88
2022-09-04T01:16:18.510Z,16.91
2022-09-04T01:19:17.114Z,16.92
2022-09-04T01:22:15.152Z,16.89
2022-09-04T01:25:01.763Z,16.84
2022-09-04T01:27:49.931Z,16.82
2022-09-04T01:30:19.309Z,16.93
2022-09-04T01:33:05.451Z,16.95
2022-09-04T01:35:42.338Z,16.97
2022-09-04T01:38:22.556Z,16.95
2022-09-04T01:41:07.618Z,16.99
2022-09-04T01:43:35.183Z,17.00
2022-09-04T01:46:32.086Z,16.98
2022-09-04T01:49:10.669Z,17.02
2022-09-04T01:51:51.028Z,17.00
2022-09-04T01:54:32.269Z,17.06
2022-09-04T01:57:02.049Z,17.11
2022-09-04T01:59:53.652Z,17.15
2022-09-04T02:02:33.082Z,17.03
2022-09-04T02:05:17.890Z,16.97
2022-09-04T02:08:16.243Z,17.03
2022-09-04T02:10:54.782Z,17.07
2022-09-04T02:13:30.736Z,17.10
2022-09-04T02:16:17.999Z,17.13
2022-09-04T02:19:01.140Z,17.13
2022-09-04T02:21:45.001Z,17.13
2022-09-04T02:24:44.179Z,17.16
2022-09-04T02:27:29.643Z,17.09
2022-09-04T02:30:12.530Z,17.08
2022-09-04T02:32:49.501Z,17.04
2022-09-04T02:35:20.129Z,17.11
2022-09-04T02:37:56.130Z,17.20
2022-09-04T02:40:57.000Z,17.23
2022-09-04T02:43:45.194Z,17.19
2022-09-04T02:46:24.968Z,17.14
2022-09-04T02:48:55.540Z,17.11
2022-09-04T02:51:55.760Z,17.10
2022-09-04T02:54:44.364Z,17.05
2022-09-04T02:57:44.692Z,17.08
2022-09-04T03:00:21.629Z,17.03
2022-09-04T03:03:13.511Z,17.00
2022-09-04T03:06:11.809Z,17.00
2022-09-04T03:08:53.303Z,16.98
2022-09-04T03:11:45.274Z,17.05
2022-09-04T03:14:19.177Z,17.03
2022-09-04T03:16:51.098Z,17.03
2022-09-04T03:19:40.777Z,17.03
2022-09-04T03:22:24.082Z,16.97
2022-09-04T03:25:28.578Z,17.00
2022-09-04T03:27:55.675Z,16.98
2022-09-04T03:30:23.213Z,16.88
2022-09-04T03:33:22.507Z,16.82
2022-09-04T03:35:49.575Z,16.79
2022-09-04T03:38:24.014Z,16.77
2022-09-04T03:41:30.473Z,16.69
2022-09-04T03:44:07.807Z,16.69
2022-09-04T03:46:51.396Z,16.71
2022-09-04T03:49:30.525Z,16.67
2022-09-04T03:52:25.054Z,16.68
2022-09-04T03:55:19.662Z,16.74
2022-09-04T03:58:28.323Z,16.81
2022-09-04T04:01:24.783Z,16.78
2022-09-04T04:03:52.355Z,16.80
2022-09-04T04:06:38.202Z,16.80
2022-09-04T04:09:40.049Z,16.78
2022-09-04T04:12:29.651Z,16.74
2022-09-04T04:15:12.848Z,16.68
2022-09-04T04:17:59.277Z,16.66
2022-09-04T04:20:54.440Z,16.73
2022-09-04T04:23:48.962Z,16.80
2022-09-04T04:26:30.669Z,16.82
2022-09-04T04:29:26.679Z,16.83
2022-09-04T04:32:12.075Z,16.90
2022-09-04T04:35:11.658Z,16.95
2022-09-04T04:37:44.265Z,17.00
2022-09-04T04:40:26.146Z,17.02
2022-09-04T04:43:08.112Z,16.95
2022-09-04T04:45:52.830Z,16.94
2022-09-04T04:48:50.881Z,17.01
2022-09-04T04:51:41.021Z,17.03
2022-09-04T04:54:43.017Z,17.16
2022-09-04T04:57:38.780Z,17.19
2022-09-04T05:00:13.175Z,17.17
2022-09-04T05:02:52.013Z,17.25
2022-09-04T05:05:43.897Z,17.35
2022-09-04T05:08:17.655Z,17.49
2022-09-04T05:11:05.621Z,17.55
2022-09-04T05:14:26.562Z,17.57
2022-09-04T05:17:18.420Z,17.65
2022-09-04T05:19:57.412Z,17.71
2022-09-04T05:22:57.439Z,17.74
2022-09-04T05:25:37.832Z,17.80
2022-09-04T05:28:23.880Z,17.84
2022-09-04T05:31:23.032Z,17.87
2022-09-04T05:34:30.910Z,17.96
2022-09-04T05:37:15.872Z,18.04
2022-09-04T05:39:59.267Z,18.10
2022-09-04T05:43:03.371Z,18.11
2022-09-04T05:45:56.890Z,18.26
2022-09-04T05:49:02.552Z,18.40
2022-09-04T05:52:01.881Z,18.38
2022-09-04T05:55:06.681Z,18.44
2022-09-04T05:57:51.883Z,18.53
2022-09-04T06:00:20.184Z,18.63
2022-09-04T06:03:19.779Z,18.81
2022-09-04T06:06:01.183Z,18.90
2022-09-04T06:09:05.805Z,18.96
2022-09-04T06:11:47.194Z,18.96
2022-09-04T06:14:35.283Z,18.98
2022-09-04T06:17:05.369Z,19.01
2022-09-04T06:20:04.286Z,18.99
2022-09-04T06:23:00.187Z,18.96
2022-09-04T06:25:57.871Z,19.02
2022-09-04T06:28:59.733Z,18.94
2022-09-04T06:31:56.999Z,18.93
2022-09-04T06:35:01.077Z,19.02
2022-09-04T06:37:46.126Z,19.12
2022-09-04T06:40:35.970Z,19.24
2022-09-04T06:43:34.577Z,19.33
2022-09-04T06:46:39.159Z,19.38
2022-09-04T06:49:24.334Z,19.42
2022-09-04T06:52:12.930Z,19.39
2022-09-04T06:55:03.016Z,19.41
2022-09-04T06:57:43.705Z,19.51
2022-09-04T07:00:15.076Z,19.72
2022-09-04T07:03:19.438Z,19.78
2022-09-04T07:06:16.544Z,19.82
2022-09-04T07:08:53.958Z,19.98
2022-09-04T07:11:41.752Z,20.12
2022-09-04T07:14:41.180Z,20.26
2022-09-04T07:17:08.324Z,20.28
2022-09-04T07:19:55.109Z,20.25
2022-09-04T07:22:52.764Z,20.29
2022-09-04T07:25:56.989Z,20.34
2022-09-04T07:28:55.404Z,20.29
2022-09-04T07:31:44.292Z,20.15
2022-09-04T07:34:32.022Z,19.96
2022-09-04T07:37:02.780Z,19.86
2022-09-04T07:39:46.039Z,19.80
2022-09-04T07:42:24.278Z,19.78
2022-09-04T07:45:12.787Z,19.78
2022-09-04T07:48:09.955Z,19.78
2022-09-04T07:50:40.327Z,19.86
2022-09-04T07:53:30.911Z,19.96
2022-09-04T07:56:42.076Z,20.07
2022-09-04T07:59:17.974Z,20.19
2022-09-04T08:02:01.595Z,20.32
2022-09-04T08:05:05.791Z,20.53
2022-09-04T08:07:38.983Z,20.57
2022-09-04T08:10:17.890Z,20.66
2022-09-04T08:12:56.518Z,20.80
2022-09-04T08:15:48.084Z,20.90
2022-09-04T08:18:26.993Z,20.85
2022-09-04T08:21:29.250Z,20.87
2022-09-04T08:24:02.375Z,20.93
2022-09-04T08:26:43.754Z,20.95
2022-09-04T08:29:32.555Z,20.94
2022-09-04T08:32:38.138Z,21.06
2022-09-04T08:35:14.258Z,21.14
2022-09-04T08:37:56.312Z,20.87
2022-09-04T08:41:00.941Z,21.03
2022-09-04T08:44:00.621Z,21.03
2022-09-04T08:47:06.221Z,21.14
2022-09-04T08:50:01.213Z,21.23
2022-09-04T08:52:31.248Z,21.34
2022-09-04T08:55:48.869Z,21.56
2022-09-04T08:58:47.661Z,21.45
2022-09-04T09:01:48.876Z,21.41
2022-09-04T09:04:16.044Z,21.54
2022-09-04T09:06:53.279Z,21.63
2022-09-04T09:09:32.431Z,21.74
2022-09-04T09:12:17.731Z,21.76
2022-09-04T09:15:03.472Z,21.85
2022-09-04T09:17:39.000Z,21.90
2022-09-04T09:20:26.176Z,21.60
2022-09-04T09:23:35.210Z,21.54
2022-09-04T09:26:15.900Z,21.55
2022-09-04T09:28:56.852Z,21.58
2022-09-04T09:31:48.827Z,21.62
2022-09-04T09:34:54.152Z,21.67
2022-09-04T09:37:39.051Z,21.72
2022-09-04T09:40:21.170Z,21.81
2022-09-04T09:43:22.707Z,21.95
2022-09-04T09:46:10.992Z,22.02
2022-09-04T09:49:31.673Z,22.18
2022-09-04T09:52:17.172Z,22.31
2022-09-04T09:55:17.708Z,22.37
2022-09-04T09:58:19.382Z,22.34
2022-09-04T10:01:00.412Z,22.48
2022-09-04T10:03:59.801Z,22.45
2022-09-04T10:06:51.324Z,22.54
2022-09-04T10:09:43.910Z,22.68
2022-09-04T10:12:29.332Z,22.59
2022-09-04T10:15:05.283Z,22.56
2022-09-04T10:18:00.176Z,22.66
2022-09-04T10:21:11.537Z,22.68
2022-09-04T10:24:26.694Z,22.69
2022-09-04T10:27:15.968Z,22.88
2022-09-04T10:30:04.254Z,22.99
2022-09-04T10:33:11.733Z,23.63
2022-09-04T10:35:56.867Z,23.91
2022-09-04T10:39:04.237Z,24.05
2022-09-04T10:42:05.884Z,24.07
2022-09-04T10:44:48.415Z,24.18
2022-09-04T10:47:25.546Z,24.35
2022-09-04T10:50:16.654Z,24.24
2022-09-04T10:53:31.864Z,23.90
2022-09-04T10:56:09.566Z,23.89
2022-09-04T10:59:25.845Z,23.92
2022-09-04T11:02:22.713Z,23.97
2022-09-04T11:05:22.783Z,24.21
2022-09-04T11:07:56.641Z,24.64
2022-09-04T11:11:02.883Z,24.99
2022-09-04T11:13:32.958Z,25.22
2022-09-04T11:16:10.165Z,25.38
2022-09-04T11:18:56.388Z,25.37
2022-09-04T11:21:48.345Z,25.09
2022-09-04T11:24:56.005Z,24.89
2022-09-04T11:27:49.488Z,24.38
2022-09-04T11:30:25.924Z,24.08
2022-09-04T11:33:11.747Z,24.01
2022-09-04T11:36:06.038Z,23.86
2022-09-04T11:38:48.342Z,23.66
2022-09-04T11:41:37.893Z,23.69
2022-09-04T11:44:29.918Z,24.07
2022-09-04T11:47:30.908Z,24.48
2022-09-04T11:50:21.638Z,24.76
2022-09-04T11:52:55.898Z,25.09
2022-09-04T11:55:34.747Z,25.10
2022-09-04T11:58:30.981Z,25.07
2022-09-04T12:01:24.698Z,24.78
2022-09-04T12:04:23.982Z,24.44
2022-09-04T12:07:05.816Z,24.41
2022-09-04T12:10:06.965Z,24.22
2022-09-04T12:12:49.247Z,24.18
2022-09-04T12:15:54.698Z,23.98
2022-09-04T12:18:28.247Z,23.89
2022-09-04T12:21:19.586Z,23.94
2022-09-04T12:24:11.112Z,23.78
2022-09-04T12:27:00.084Z,23.76
2022-09-04T12:29:39.189Z,23.62
2022-09-04T12:32:20.620Z,23.60
2022-09-04T12:35:09.637Z,23.45
2022-09-04T12:38:01.834Z,23.48
2022-09-04T12:40:34.827Z,23.59
2022-09-04T12:43:16.756Z,23.21
2022-09-04T12:45:55.390Z,23.06
2022-09-04T12:48:33.566Z,23.01
2022-09-04T12:51:10.004Z,23.20
2022-09-04T12:54:20.255Z,23.28
2022-09-04T12:57:07.008Z,23.14
2022-09-04T12:59:44.720Z,23.11
2022-09-04T13:02:50.000Z,23.07
2022-09-04T13:05:32.100Z,23.08
2022-09-04T13:08:26.542Z,23.06
2022-09-04T13:11:21.071Z,23.13
2022-09-04T13:13:56.998Z,23.13
2022-09-04T13:16:27.882Z,23.05
2022-09-04T13:19:01.359Z,23.13
2022-09-04T13:22:09.073Z,23.14
2022-09-04T13:24:38.169Z,23.07
2022-09-04T13:27:30.545Z,22.91
2022-09-04T13:30:07.964Z,22.78
2022-09-04T13:32:53.216Z,22.96
2022-09-04T13:35:43.716Z,23.24
2022-09-04T13:38:35.664Z,23.21
2022-09-04T13:41:39.855Z,23.31
2022-09-04T13:44:38.747Z,23.42
2022-09-04T13:47:12.292Z,23.20
2022-09-04T13:49:48.931Z,23.20
2022-09-04T13:52:25.893Z,23.19
2022-09-04T13:55:11.781Z,23.16
2022-09-04T13:57:48.877Z,22.93
2022-09-04T14:00:17.266Z,22.59
2022-09-04T14:02:46.464Z,22.44
2022-09-04T14:05:23.527Z,22.34
2022-09-04T14:08:04.692Z,22.21
2022-09-04T14:11:01.273Z,22.07
2022-09-04T14:13:38.107Z,22.06
2022-09-04T14:16:09.800Z,21.96
2022-09-04T14:18:45.544Z,21.94
2022-09-04T14:21:34.852Z,21.89
2022-09-04T14:24:14.437Z,21.85
2022-09-04T14:27:09.171Z,21.81
2022-09-04T14:29:56.736Z,21.77
2022-09-04T14:32:45.241Z,21.88
2022-09-04T14:35:47.149Z,21.97
2022-09-04T14:38:14.459Z,21.88
2022-09-04T14:40:56.982Z,21.89
2022-09-04T14:43:42.908Z,22.10
2022-09-04T14:46:42.571Z,22.22
2022-09-04T14:49:18.096Z,22.25
2022-09-04T14:51:48.968Z,22.20
2022-09-04T14:54:24.740Z,22.29
2022-09-04T14:56:57.321Z,22.34
2022-09-04T14:59:30.350Z,22.29
2022-09-04T15:02:06.630Z,22.27
2022-09-04T15:04:53.438Z,22.36
2022-09-04T15:07:31.171Z,22.29
2022-09-04T15:10:31.812Z,22.14
2022-09-04T15:13:30.432Z,22.07
2022-09-04T15:16:00.358Z,21.99
2022-09-04T15:18:34.623Z,21.87
2022-09-04T15:21:21.988Z,21.79
2022-09-04T15:24:00.382Z,21.64
2022-09-04T15:26:30.194Z,21.51
2022-09-04T15:29:12.389Z,21.40
2022-09-04T15:31:42.151Z,21.31
2022-09-04T15:34:18.522Z,21.20
2022-09-04T15:36:45.778Z,21.12
2022-09-04T15:39:33.144Z,21.01
2022-09-04T15:42:00.425Z,20.83
2022-09-04T15:44:41.175Z,20.90
2022-09-04T15:47:51.029Z,21.03
2022-09-04T15:50:26.521Z,20.97
2022-09-04T15:53:13.148Z,20.80
2022-09-04T15:55:44.627Z,20.69
2022-09-04T15:58:32.230Z,20.55
2022-09-04T16:01:19.541Z,20.35
2022-09-04T16:04:15.744Z,20.25
2022-09-04T16:07:34.576Z,20.08
2022-09-04T16:10:30.120Z,20.04
2022-09-04T16:13:05.677Z,19.98
2022-09-04T16:15:34.561Z,19.92
2022-09-04T16:18:18.731Z,19.86
2022-09-04T16:20:53.644Z,19.86
2022-09-04T16:23:32.048Z,19.83
2022-09-04T16:26:09.331Z,19.74
2022-09-04T16:28:46.634Z,19.71
2022-09-04T16:31:38.726Z,19.59
2022-09-04T16:34:11.867Z,19.54
2022-09-04T16:36:48.616Z,19.42
2022-09-04T16:39:45.246Z,19.34
2022-09-04T16:42:12.249Z,19.31
2022-09-04T16:44:58.187Z,19.26
2022-09-04T16:47:41.165Z,19.19
2022-09-04T16:50:13.797Z,19.10
2022-09-04T16:52:41.110Z,19.06
2022-09-04T16:55:44.779Z,18.98
2022-09-04T16:58:15.136Z,18.94
2022-09-04T17:01:14.699Z,18.88
2022-09-04T17:04:13.460Z,18.89
2022-09-04T17:07:08.193Z,18.88
2022-09-04T17:09:50.217Z,18.82
2022-09-04T17:12:47.515Z,18.76
2022-09-04T17:15:38.761Z,18.61
2022-09-04T17:18:12.851Z,18.49
2022-09-04T17:22:55.551Z,18.47
2022-09-04T17:29:03.907Z,18.43
2022-09-04T17:29:16.209Z,18.42
2022-09-04T17:29:55.183Z,18.42
2022-09-04T17:36:07.279Z,18.34
2022-09-04T17:40:40.888Z,18.30
2022-09-04T17:40:52.536Z,18.28
2022-09-04T17:41:59.389Z,18.19
2022-09-04T17:44:47.424Z,18.20
2022-09-04T17:47:32.111Z,18.15
2022-09-04T17:50:00.698Z,18.14
2022-09-04T17:52:32.782Z,18.14
2022-09-04T17:55:08.497Z,18.14
2022-09-04T17:57:58.293Z,18.16
2022-09-04T18:00:34.510Z,18.11
2022-09-04T18:03:26.793Z,18.08
2022-09-04T18:06:11.397Z,18.11
2022-09-04T18:08:55.797Z,18.10
2022-09-04T18:11:31.938Z,18.02
2022-09-04T18:14:18.819Z,18.03
2022-09-04T18:17:21.216Z,17.95
2022-09-04T18:20:24.300Z,17.94
2022-09-04T18:23:20.716Z,17.97
2022-09-04T18:25:56.412Z,17.90
2022-09-04T18:28:34.898Z,17.88
2022-09-04T18:34:52.870Z,17.89
2022-09-04T18:37:23.202Z,17.94
2022-09-04T18:37:45.787Z,17.94
2022-09-04T18:44:52.613Z,17.93
2022-09-04T18:50:21.264Z,17.89
2022-09-04T18:50:35.749Z,17.83
2022-09-04T18:50:39.226Z,17.85
2022-09-04T18:52:19.527Z,17.83
2022-09-04T18:54:52.672Z,17.86
2022-09-04T18:57:42.894Z,17.80
2022-09-04T19:00:22.709Z,17.72
2022-09-04T19:03:00.889Z,17.64
2022-09-04T19:05:44.310Z,17.52
2022-09-04T19:08:21.937Z,17.50
2022-09-04T19:10:56.174Z,17.54
2022-09-04T19:13:36.792Z,17.57
2022-09-04T19:16:06.680Z,17.53
2022-09-04T19:18:46.376Z,17.50
2022-09-04T19:21:25.731Z,17.32
2022-09-04T19:24:15.458Z,17.22
2022-09-04T19:26:54.985Z,17.19
2022-09-04T19:29:45.865Z,17.15
2022-09-04T19:32:18.262Z,17.12
2022-09-04T19:35:13.286Z,17.15
2022-09-04T19:41:21.890Z,17.10
2022-09-04T19:46:00.640Z,17.02
2022-09-04T19:46:05.760Z,17.04
2022-09-04T19:46:53.588Z,17.05
2022-09-04T19:51:49.140Z,16.98
2022-09-04T19:53:31.034Z,16.94
2022-09-04T19:55:59.891Z,16.90
2022-09-04T19:58:39.951Z,16.74
2022-09-04T20:01:18.000Z,16.57
2022-09-04T20:03:55.283Z,16.54
2022-09-04T20:06:30.597Z,16.59
2022-09-04T20:09:20.740Z,16.60
2022-09-04T20:12:01.262Z,16.61
2022-09-04T20:15:06.077Z,16.62
2022-09-04T20:17:54.456Z,16.63
2022-09-04T20:20:36.747Z,16.62
2022-09-04T20:23:35.696Z,16.54
2022-09-04T20:26:29.299Z,16.48
2022-09-04T20:29:11.282Z,16.43
2022-09-04T20:31:42.335Z,16.44
2022-09-04T20:34:21.562Z,16.46
2022-09-04T20:36:55.603Z,16.45
2022-09-04T20:39:42.094Z,16.44
2022-09-04T20:42:28.271Z,16.46
2022-09-04T20:47:44.486Z,16.46
2022-09-04T20:52:51.289Z,16.49
2022-09-04T20:52:57.619Z,16.55
2022-09-04T20:54:13.340Z,16.59
2022-09-04T21:00:09.404Z,16.63
2022-09-04T21:03:13.511Z,16.66
2022-09-04T21:03:37.820Z,16.68
2022-09-04T21:06:18.095Z,16.68
2022-09-04T21:09:02.778Z,16.69
2022-09-04T21:11:47.616Z,16.74
2022-09-04T21:14:19.496Z,16.73
2022-09-04T21:17:33.338Z,16.73
2022-09-04T21:20:16.948Z,16.70
2022-09-04T21:23:11.658Z,16.74
2022-09-04T21:25:51.836Z,16.76
2022-09-04T21:28:44.887Z,16.73
2022-09-04T21:31:43.997Z,16.70
2022-09-04T21:34:21.633Z,16.67
2022-09-04T21:36:54.540Z,16.62
2022-09-04T21:39:47.303Z,16.57
2022-09-04T21:42:31.729Z,16.60
2022-09-04T21:45:25.700Z,16.53
2022-09-04T21:48:17.892Z,16.51
2022-09-04T21:50:58.802Z,16.52
2022-09-04T21:53:41.539Z,16.45
2022-09-04T22:02:25.956Z,16.41
2022-09-04T22:02:39.062Z,16.35
2022-09-04T22:02:51.381Z,16.29
2022-09-04T22:05:41.409Z,16.22
2022-09-04T22:13:34.441Z,16.17
2022-09-04T22:13:43.868Z,16.15
2022-09-04T22:14:42.362Z,16.18
2022-09-04T22:17:30.866Z,16.14
2022-09-04T22:20:18.943Z,16.07
2022-09-04T22:23:20.219Z,16.05
2022-09-04T22:26:14.842Z,16.06
2022-09-04T22:29:26.591Z,16.03
2022-09-04T22:32:34.158Z,15.95
2022-09-04T22:35:14.752Z,15.97
2022-09-04T22:38:15.933Z,15.89
2022-09-04T22:41:13.025Z,15.86
2022-09-04T22:43:57.908Z,15.82
2022-09-04T22:46:36.607Z,15.83
2022-09-04T22:49:29.672Z,15.77
2022-09-04T22:52:38.931Z,15.66
2022-09-04T22:55:39.454Z,15.73
2022-09-04T22:58:42.552Z,15.59
2022-09-04T23:01:28.965Z,15.57
2022-09-04T23:04:25.204Z,15.50
2022-09-04T23:11:42.064Z,15.48
2022-09-04T23:13:44.565Z,15.42
2022-09-04T23:13:58.887Z,15.38
2022-09-04T23:16:38.906Z,15.34
2022-09-04T23:26:33.634Z,15.27
2022-09-04T23:26:45.331Z,15.22
2022-09-04T23:26:45.676Z,15.24
2022-09-04T23:28:57.904Z,15.22
2022-09-04T23:32:07.060Z,15.24
2022-09-04T23:35:14.191Z,15.25
2022-09-04T23:37:42.644Z,15.28
2022-09-04T23:40:48.541Z,15.23
2022-09-04T23:43:34.297Z,15.23
2022-09-04T23:46:38.223Z,15.27
2022-09-04T23:49:14.517Z,15.37
2022-09-04T23:51:56.914Z,15.36
2022-09-04T23:54:55.876Z,15.39
2022-09-04T23:57:29.955Z,15.41
